createdAt,value
2023-03-29T00:01:01.168Z,14.60
2023-03-29T00:03:28.767Z,14.83
2023-03-29T00:06:03.040Z,13.00
2023-03-29T00:08:31.560Z,15.90
2023-03-29T00:10:59.486Z,13.90
2023-03-29T00:13:29.580Z,13.60
2023-03-29T00:18:41.187Z,13.73
2023-03-29T00:21:08.380Z,12.63
2023-03-29T00:23:35.106Z,13.17
2023-03-29T00:26:02.528Z,13.40
2023-03-29T00:28:29.460Z,13.53
2023-03-29T00:31:08.343Z,14.10
2023-03-29T00:33:54.178Z,13.50
2023-03-29T00:36:40.614Z,13.37
2023-03-29T00:41:52.447Z,13.63
2023-03-29T00:44:53.289Z,13.20
2023-03-29T00:47:26.298Z,14.30
2023-03-29T00:49:54.565Z,13.37
2023-03-29T00:52:22.754Z,12.10
2023-03-29T00:54:54.879Z,11.63
2023-03-29T00:57:26.511Z,13.70
2023-03-29T00:59:55.571Z,13.30
2023-03-29T01:02:27.528Z,12.43
2023-03-29T01:05:08.616Z,13.50
2023-03-29T01:07:43.426Z,12.57
2023-03-29T01:10:55.242Z,13.60
2023-03-29T01:13:39.415Z,12.33
2023-03-29T01:16:28.626Z,13.17
2023-03-29T01:18:58.473Z,13.13
2023-03-29T01:22:13.624Z,13.83
2023-03-29T01:24:50.553Z,12.93
2023-03-29T01:27:23.532Z,12.87
2023-03-29T01:29:54.264Z,13.43
2023-03-29T01:32:59.316Z,14.30
2023-03-29T01:35:42.590Z,14.10
2023-03-29T01:38:24.519Z,12.40
2023-03-29T01:40:51.868Z,13.23
2023-03-29T01:43:30.880Z,14.43
2023-03-29T01:46:04.695Z,13.33
2023-03-29T01:48:54.954Z,12.57
2023-03-29T01:51:29.901Z,13.20
2023-03-29T01:54:03.605Z,13.37
2023-03-29T01:56:36.910Z,12.60
2023-03-29T01:59:09.495Z,12.80
2023-03-29T02:01:59.925Z,12.10
2023-03-29T02:04:40.427Z,12.93
2023-03-29T02:07:09.098Z,12.57
2023-03-29T02:09:56.537Z,13.53
2023-03-29T02:12:23.388Z,12.73
2023-03-29T02:14:50.932Z,14.47
2023-03-29T02:17:23.454Z,13.23
2023-03-29T02:20:14.956Z,12.00
2023-03-29T02:23:08.354Z,12.60
2023-03-29T02:25:37.968Z,11.63
2023-03-29T02:28:06.930Z,11.90
2023-03-29T02:30:53.548Z,13.63
2023-03-29T02:33:49.114Z,12.97
2023-03-29T02:36:22.534Z,13.47
2023-03-29T02:38:52.884Z,13.23
2023-03-29T02:41:20.775Z,15.83
2023-03-29T02:43:49.033Z,13.47
2023-03-29T02:46:18.506Z,13.07
2023-03-29T02:49:05.289Z,14.23
2023-03-29T02:51:34.250Z,14.57
2023-03-29T02:54:13.559Z,13.33
2023-03-29T02:56:58.656Z,13.47
2023-03-29T02:59:25.903Z,13.73
2023-03-29T03:01:53.660Z,13.43
2023-03-29T03:04:21.535Z,12.57
2023-03-29T03:06:48.717Z,11.67
2023-03-29T03:09:15.851Z,13.80
2023-03-29T03:11:45.407Z,12.90
2023-03-29T03:14:12.505Z,12.77
2023-03-29T03:16:39.422Z,13.33
2023-03-29T03:19:07.088Z,14.30
2023-03-29T03:21:35.227Z,13.73
2023-03-29T03:24:02.073Z,14.60
2023-03-29T03:26:32.665Z,15.40
2023-03-29T03:29:00.910Z,12.67
2023-03-29T03:32:04.243Z,13.47
2023-03-29T03:34:53.602Z,12.40
2023-03-29T03:37:39.308Z,13.70
2023-03-29T03:40:09.170Z,12.53
2023-03-29T03:42:35.913Z,12.57
2023-03-29T03:45:02.823Z,13.10
2023-03-29T03:47:41.650Z,15.13
2023-03-29T03:50:27.479Z,13.47
2023-03-29T03:52:54.454Z,15.10
2023-03-29T03:55:40.412Z,13.37
2023-03-29T03:58:14.913Z,14.73
2023-03-29T04:00:42.718Z,14.07
2023-03-29T04:03:36.136Z,14.37
2023-03-29T04:06:03.996Z,14.67
2023-03-29T04:08:48.026Z,15.70
2023-03-29T04:11:27.365Z,15.03
2023-03-29T04:14:13.124Z,14.90
2023-03-29T04:17:00.171Z,14.80
2023-03-29T04:20:01.417Z,16.07
2023-03-29T04:22:32.250Z,14.47
2023-03-29T04:24:59.021Z,13.77
2023-03-29T04:27:34.699Z,13.07
2023-03-29T04:30:07.281Z,13.20
2023-03-29T04:32:52.502Z,14.33
2023-03-29T04:35:19.683Z,12.43
2023-03-29T04:37:46.571Z,12.50
2023-03-29T04:40:15.715Z,12.30
2023-03-29T04:43:14.682Z,12.37
2023-03-29T04:45:52.465Z,11.50
2023-03-29T04:48:37.979Z,11.93
2023-03-29T04:51:05.039Z,11.83
2023-03-29T04:53:34.113Z,12.70
2023-03-29T04:56:00.944Z,10.73
2023-03-29T04:58:47.580Z,11.63
2023-03-29T05:01:14.600Z,11.70
2023-03-29T05:03:46.396Z,11.47
2023-03-29T05:06:19.586Z,12.53
2023-03-29T05:08:46.450Z,12.67
2023-03-29T05:11:21.372Z,11.90
2023-03-29T05:13:48.186Z,10.93
2023-03-29T05:16:15.997Z,10.83
2023-03-29T05:18:43.383Z,10.73
2023-03-29T05:21:10.914Z,12.20
2023-03-29T05:23:40.815Z,11.83
2023-03-29T05:26:28.012Z,11.63
2023-03-29T05:28:54.885Z,11.30
2023-03-29T05:31:22.919Z,11.83
2023-03-29T05:33:53.794Z,10.73
2023-03-29T05:36:20.804Z,12.03
2023-03-29T05:38:51.320Z,12.37
2023-03-29T05:41:20.817Z,12.57
2023-03-29T05:43:59.391Z,11.77
2023-03-29T05:46:27.032Z,10.87
2023-03-29T05:48:56.761Z,11.60
2023-03-29T05:54:21.160Z,12.87
2023-03-29T05:56:47.931Z,14.43
2023-03-29T05:59:17.670Z,15.83
2023-03-29T06:01:47.030Z,14.13
2023-03-29T06:04:18.227Z,14.87
2023-03-29T06:06:55.834Z,13.83
2023-03-29T06:09:22.949Z,16.07
2023-03-29T06:11:59.520Z,15.00
2023-03-29T06:14:37.421Z,15.40
2023-03-29T06:17:15.347Z,16.47
2023-03-29T06:20:01.642Z,15.53
2023-03-29T06:22:31.052Z,17.57
2023-03-29T06:24:58.484Z,15.13
2023-03-29T06:27:29.685Z,17.97
2023-03-29T06:30:16.092Z,16.73
2023-03-29T06:32:49.482Z,15.70
2023-03-29T06:35:45.682Z,16.93
2023-03-29T06:38:16.552Z,18.67
2023-03-29T06:41:04.447Z,17.63
2023-03-29T06:43:47.514Z,18.50
2023-03-29T06:46:17.019Z,20.75
2023-03-29T06:49:14.957Z,19.80
2023-03-29T06:51:53.197Z,19.07
2023-03-29T06:54:21.110Z,15.40
2023-03-29T06:56:59.636Z,18.50
2023-03-29T06:59:28.917Z,18.47
2023-03-29T07:02:09.628Z,19.45
2023-03-29T07:04:50.302Z,19.03
2023-03-29T07:08:08.319Z,18.50
2023-03-29T07:10:53.377Z,20.13
2023-03-29T07:13:43.637Z,16.08
2023-03-29T07:16:13.974Z,19.03
2023-03-29T07:18:55.147Z,17.53
2023-03-29T07:21:47.912Z,16.40
2023-03-29T07:24:15.661Z,19.13
2023-03-29T07:26:52.323Z,19.87
2023-03-29T07:29:23.146Z,16.15
2023-03-29T07:31:50.668Z,17.15
2023-03-29T07:34:43.216Z,17.37
2023-03-29T07:37:17.731Z,17.93
2023-03-29T07:39:46.071Z,16.05
2023-03-29T07:42:29.432Z,17.98
2023-03-29T07:44:56.645Z,16.60
2023-03-29T07:47:23.618Z,16.67
2023-03-29T07:49:50.688Z,12.07
2023-03-29T07:52:18.187Z,16.48
2023-03-29T07:54:45.388Z,16.73
2023-03-29T07:57:39.094Z,17.13
2023-03-29T08:00:11.662Z,14.80
2023-03-29T08:02:40.852Z,13.65
2023-03-29T08:05:08.049Z,16.50
2023-03-29T08:07:48.249Z,16.85
2023-03-29T08:10:18.139Z,14.90
2023-03-29T08:13:08.490Z,14.65
2023-03-29T08:15:48.616Z,15.43
2023-03-29T08:18:26.232Z,14.32
2023-03-29T08:20:53.167Z,13.57
2023-03-29T08:23:20.026Z,14.73
2023-03-29T08:26:02.253Z,11.80
2023-03-29T08:28:29.180Z,11.63
2023-03-29T08:30:55.961Z,13.27
2023-03-29T08:33:22.910Z,9.20
2023-03-29T08:36:19.129Z,9.88
2023-03-29T08:39:05.913Z,11.30
2023-03-29T08:42:03.157Z,10.63
2023-03-29T08:44:38.842Z,10.80
2023-03-29T08:47:24.210Z,10.15
2023-03-29T08:49:54.618Z,10.10
2023-03-29T08:52:57.630Z,6.75
2023-03-29T08:55:45.371Z,9.18
2023-03-29T08:58:32.686Z,9.38
2023-03-29T09:01:03.949Z,9.23
2023-03-29T09:03:42.818Z,8.30
2023-03-29T09:06:20.406Z,6.55
2023-03-29T09:08:52.242Z,7.63
2023-03-29T09:11:23.272Z,8.02
2023-03-29T09:14:21.696Z,7.53
2023-03-29T09:17:24.254Z,7.47
2023-03-29T09:19:50.946Z,8.27
2023-03-29T09:22:48.418Z,7.05
2023-03-29T09:25:29.316Z,7.22
2023-03-29T09:28:02.167Z,7.60
2023-03-29T09:31:26.711Z,5.30
2023-03-29T09:33:58.674Z,7.85
2023-03-29T09:36:56.880Z,6.57
2023-03-29T09:39:25.976Z,7.10
2023-03-29T09:42:04.301Z,6.05
2023-03-29T09:44:41.493Z,7.15
2023-03-29T09:47:19.203Z,7.22
2023-03-29T09:49:51.620Z,6.43
2023-03-29T09:52:20.911Z,6.82
2023-03-29T09:55:19.047Z,5.88
2023-03-29T09:58:22.592Z,5.00
2023-03-29T10:00:53.161Z,4.82
2023-03-29T10:03:23.842Z,5.28
2023-03-29T10:06:03.040Z,4.60
2023-03-29T10:08:44.642Z,5.47
2023-03-29T10:11:33.110Z,5.20
2023-03-29T10:14:14.084Z,4.65
2023-03-29T10:16:47.748Z,5.43
2023-03-29T10:19:28.112Z,5.70
2023-03-29T10:21:58.589Z,5.15
2023-03-29T10:24:27.344Z,6.32
2023-03-29T10:26:58.374Z,6.38
2023-03-29T10:29:27.861Z,6.07
2023-03-29T10:31:55.268Z,5.30
2023-03-29T10:34:26.075Z,7.38
2023-03-29T10:37:01.428Z,7.28
2023-03-29T10:39:33.043Z,6.80
2023-03-29T10:42:03.331Z,7.95
2023-03-29T10:44:35.876Z,7.95
2023-03-29T10:47:19.596Z,8.82
2023-03-29T10:49:56.663Z,9.43
2023-03-29T10:52:25.027Z,8.00
2023-03-29T10:54:54.413Z,8.45
2023-03-29T10:57:30.983Z,7.75
2023-03-29T11:00:51.018Z,9.18
2023-03-29T11:03:40.690Z,10.18
2023-03-29T11:06:11.285Z,9.20
2023-03-29T11:08:52.775Z,7.28
2023-03-29T11:11:23.379Z,8.68
2023-03-29T11:13:58.059Z,9.88
2023-03-29T11:17:01.466Z,9.80
2023-03-29T11:19:52.854Z,7.55
2023-03-29T11:22:46.368Z,9.75
2023-03-29T11:25:43.300Z,8.35
2023-03-29T11:32:08.000Z,8.10
2023-03-29T11:34:50.079Z,8.68
2023-03-29T11:37:38.366Z,9.05
2023-03-29T11:40:36.769Z,9.57
2023-03-29T11:43:13.083Z,8.90
2023-03-29T11:45:46.295Z,8.38
2023-03-29T11:48:37.816Z,9.13
2023-03-29T11:51:28.758Z,7.90
2023-03-29T11:54:00.165Z,7.85
2023-03-29T11:56:35.021Z,7.32
2023-03-29T11:59:12.695Z,6.63
2023-03-29T12:01:48.894Z,8.05
2023-03-29T12:04:30.080Z,7.00
2023-03-29T12:07:08.828Z,7.85
2023-03-29T12:09:55.070Z,7.63
2023-03-29T12:12:40.819Z,7.28
2023-03-29T12:15:17.218Z,6.13
2023-03-29T12:17:50.585Z,5.45
2023-03-29T12:20:28.277Z,6.00
2023-03-29T12:22:58.083Z,5.57
2023-03-29T12:25:41.576Z,5.90
2023-03-29T12:28:49.411Z,6.70
2023-03-29T12:31:34.661Z,7.25
2023-03-29T12:34:36.267Z,5.88
2023-03-29T12:37:38.028Z,5.20
2023-03-29T12:40:19.880Z,5.80
2023-03-29T12:43:32.271Z,4.45
2023-03-29T12:46:45.900Z,4.93
2023-03-29T12:49:28.134Z,4.43
2023-03-29T12:51:59.166Z,4.25
2023-03-29T12:54:54.094Z,3.53
2023-03-29T12:57:41.167Z,4.55
2023-03-29T13:00:22.827Z,3.35
2023-03-29T13:03:22.583Z,2.63
2023-03-29T13:06:02.629Z,2.70
2023-03-29T13:08:39.691Z,2.85
2023-03-29T13:11:23.919Z,3.03
2023-03-29T13:14:16.816Z,4.22
2023-03-29T13:16:43.944Z,2.80
2023-03-29T13:19:48.579Z,3.95
2023-03-29T13:22:27.213Z,2.95
2023-03-29T13:25:27.495Z,3.00
2023-03-29T13:28:10.404Z,3.47
2023-03-29T13:30:44.150Z,3.65
2023-03-29T13:33:45.763Z,3.78
2023-03-29T13:36:30.699Z,3.58
2023-03-29T13:39:05.321Z,4.68
2023-03-29T13:41:38.279Z,4.60
2023-03-29T13:44:22.777Z,4.63
2023-03-29T13:47:06.033Z,5.25
2023-03-29T13:50:10.381Z,5.72
2023-03-29T13:52:43.221Z,5.25
2023-03-29T13:55:24.644Z,5.28
2023-03-29T13:58:04.435Z,4.70
2023-03-29T14:00:42.031Z,4.60
2023-03-29T14:03:30.172Z,4.40
2023-03-29T14:06:00.552Z,4.05
2023-03-29T14:08:32.421Z,4.75
2023-03-29T14:11:03.328Z,4.25
2023-03-29T14:13:31.194Z,7.45
2023-03-29T14:16:04.568Z,6.57
2023-03-29T14:18:39.346Z,7.22
2023-03-29T14:21:07.112Z,7.38
2023-03-29T14:23:36.970Z,8.20
2023-03-29T14:26:14.432Z,7.70
2023-03-29T14:29:01.372Z,8.98
2023-03-29T14:31:37.069Z,7.57
2023-03-29T14:34:06.954Z,8.15
2023-03-29T14:36:34.207Z,8.15
2023-03-29T14:39:16.353Z,8.35
2023-03-29T14:41:50.423Z,7.50
2023-03-29T14:44:20.042Z,7.90
2023-03-29T14:46:49.732Z,7.78
2023-03-29T14:49:18.418Z,7.75
2023-03-29T14:51:47.697Z,7.28
2023-03-29T14:54:28.913Z,9.30
2023-03-29T14:56:56.337Z,8.05
2023-03-29T14:59:37.248Z,7.15
2023-03-29T15:02:21.865Z,7.15
2023-03-29T15:04:59.256Z,6.63
2023-03-29T15:07:28.416Z,9.05
2023-03-29T15:09:57.412Z,8.60
2023-03-29T15:12:25.019Z,8.48
2023-03-29T15:14:53.070Z,6.55
2023-03-29T15:17:46.852Z,9.07
2023-03-29T15:20:23.447Z,10.15
2023-03-29T15:23:09.557Z,10.85
2023-03-29T15:25:38.791Z,10.73
2023-03-29T15:28:06.329Z,10.00
2023-03-29T15:30:39.511Z,9.60
2023-03-29T15:33:23.106Z,9.80
2023-03-29T15:35:53.182Z,11.80
2023-03-29T15:38:25.417Z,10.45
2023-03-29T15:40:57.390Z,11.40
2023-03-29T15:43:24.796Z,11.30
2023-03-29T15:45:51.781Z,11.93
2023-03-29T15:48:23.533Z,11.50
2023-03-29T15:50:50.415Z,11.68
2023-03-29T15:53:18.331Z,10.88
2023-03-29T15:55:48.438Z,10.75
2023-03-29T15:58:17.252Z,10.90
2023-03-29T16:00:48.862Z,12.40
2023-03-29T16:03:16.308Z,11.52
2023-03-29T16:05:44.379Z,10.45
2023-03-29T16:08:12.203Z,11.82
2023-03-29T16:10:43.852Z,11.68
2023-03-29T16:13:14.124Z,10.75
2023-03-29T16:15:42.329Z,10.07
2023-03-29T16:18:09.191Z,10.50
2023-03-29T16:20:36.158Z,10.05
2023-03-29T16:23:08.740Z,10.55
2023-03-29T16:25:38.522Z,10.88
2023-03-29T16:28:07.780Z,9.93
2023-03-29T16:30:36.241Z,12.70
2023-03-29T16:33:08.586Z,10.60
2023-03-29T16:35:38.515Z,10.30
2023-03-29T16:38:06.464Z,8.90
2023-03-29T16:40:33.519Z,11.73
2023-03-29T16:43:00.572Z,9.90
2023-03-29T16:45:27.625Z,11.75
2023-03-29T16:47:55.649Z,10.88
2023-03-29T16:50:22.580Z,11.63
2023-03-29T16:52:51.493Z,12.45
2023-03-29T16:55:19.184Z,12.45
2023-03-29T16:57:47.704Z,10.88
2023-03-29T17:00:17.069Z,13.55
2023-03-29T17:02:44.491Z,12.93
2023-03-29T17:05:12.637Z,11.77
2023-03-29T17:07:40.310Z,13.95
2023-03-29T17:10:26.047Z,13.82
2023-03-29T17:12:53.451Z,11.40
2023-03-29T17:15:39.976Z,14.50
2023-03-29T17:18:07.167Z,14.13
2023-03-29T17:20:33.956Z,14.50
2023-03-29T17:23:00.672Z,13.55
2023-03-29T17:25:27.411Z,12.90
2023-03-29T17:27:54.170Z,12.40
2023-03-29T17:30:21.222Z,12.93
2023-03-29T17:32:48.532Z,13.38
2023-03-29T17:35:15.409Z,13.95
2023-03-29T17:37:42.594Z,14.15
2023-03-29T17:40:11.358Z,14.90
2023-03-29T17:42:38.071Z,11.82
2023-03-29T17:45:05.520Z,13.70
2023-03-29T17:47:32.289Z,13.55
2023-03-29T17:49:59.645Z,14.38
2023-03-29T17:52:27.155Z,12.35
2023-03-29T17:54:54.008Z,14.82
2023-03-29T17:57:21.028Z,14.00
2023-03-29T17:59:47.785Z,14.95
2023-03-29T18:02:19.893Z,15.18
2023-03-29T18:04:46.768Z,15.93
2023-03-29T18:07:13.834Z,16.92
2023-03-29T18:09:40.657Z,15.35
2023-03-29T18:12:08.323Z,15.63
2023-03-29T18:14:35.989Z,12.32
2023-03-29T18:17:02.929Z,13.13
2023-03-29T18:19:29.868Z,11.98
2023-03-29T18:21:56.614Z,12.93
2023-03-29T18:24:23.539Z,11.98
2023-03-29T18:26:50.464Z,13.23
2023-03-29T18:29:17.300Z,12.15
2023-03-29T18:31:45.958Z,12.50
2023-03-29T18:34:12.859Z,11.05
2023-03-29T18:36:39.666Z,11.68
2023-03-29T18:39:06.681Z,10.98
2023-03-29T18:41:35.706Z,8.88
2023-03-29T18:44:03.131Z,9.43
2023-03-29T18:46:33.335Z,9.38
2023-03-29T18:49:01.371Z,8.10
2023-03-29T18:51:28.320Z,9.00
2023-03-29T18:53:56.072Z,8.45
2023-03-29T18:56:23.069Z,7.45
2023-03-29T18:58:49.954Z,8.55
2023-03-29T19:01:16.730Z,6.82
2023-03-29T19:03:43.804Z,8.52
2023-03-29T19:06:11.865Z,9.30
2023-03-29T19:08:41.281Z,10.88
2023-03-29T19:11:11.360Z,14.27
2023-03-29T19:13:56.715Z,13.90
2023-03-29T19:16:23.773Z,13.07
2023-03-29T19:18:50.576Z,13.18
2023-03-29T19:21:17.342Z,12.85
2023-03-29T19:23:44.102Z,14.45
2023-03-29T19:26:11.631Z,12.82
2023-03-29T19:28:38.454Z,12.20
2023-03-29T19:31:05.470Z,14.30
2023-03-29T19:33:51.017Z,13.02
2023-03-29T19:36:17.761Z,14.82
2023-03-29T19:38:45.834Z,16.30
2023-03-29T19:41:12.613Z,14.38
2023-03-29T19:43:39.368Z,14.98
2023-03-29T19:46:25.519Z,14.60
2023-03-29T19:48:55.578Z,15.43
2023-03-29T19:51:42.435Z,16.92
2023-03-29T19:54:09.716Z,16.65
2023-03-29T19:56:36.426Z,17.73
2023-03-29T19:59:03.173Z,16.08
2023-03-29T20:01:32.221Z,16.25
2023-03-29T20:03:59.130Z,14.60
2023-03-29T20:06:25.900Z,11.63
2023-03-29T20:08:52.933Z,14.38
2023-03-29T20:11:23.830Z,16.05
2023-03-29T20:13:50.817Z,15.85
2023-03-29T20:16:19.074Z,17.52
2023-03-29T20:18:46.634Z,16.60
2023-03-29T20:21:16.652Z,17.08
2023-03-29T20:23:44.178Z,14.93
2023-03-29T20:26:10.875Z,16.00
2023-03-29T20:28:37.856Z,14.80
2023-03-29T20:31:06.803Z,15.07
2023-03-29T20:33:34.115Z,13.98
2023-03-29T20:36:01.055Z,15.43
2023-03-29T20:38:46.654Z,16.52
2023-03-29T20:41:13.920Z,13.18
2023-03-29T20:43:41.315Z,12.82
2023-03-29T20:46:14.566Z,12.85
2023-03-29T20:48:53.555Z,12.60
2023-03-29T20:54:07.748Z,12.65
2023-03-29T20:56:44.457Z,12.82
2023-03-29T20:59:11.251Z,11.60
2023-03-29T21:01:40.762Z,13.55
2023-03-29T21:04:08.482Z,10.75
2023-03-29T21:06:36.113Z,10.90
2023-03-29T21:09:04.891Z,12.20
2023-03-29T21:11:32.013Z,12.27
2023-03-29T21:13:59.270Z,11.07
2023-03-29T21:16:29.063Z,11.02
2023-03-29T21:18:56.026Z,12.52
2023-03-29T21:21:22.924Z,11.32
2023-03-29T21:23:49.758Z,11.38
2023-03-29T21:26:16.602Z,12.27
2023-03-29T21:28:43.554Z,8.93
2023-03-29T21:31:10.638Z,8.38
2023-03-29T21:33:37.524Z,10.82
2023-03-29T21:38:50.203Z,8.70
2023-03-29T21:41:17.646Z,8.30
2023-03-29T21:43:44.843Z,9.43
2023-03-29T21:48:56.438Z,8.60
2023-03-29T21:51:23.232Z,10.30
2023-03-29T21:53:50.130Z,9.75
2023-03-29T21:56:16.900Z,10.77
2023-03-29T21:58:43.736Z,9.60
2023-03-29T22:01:10.980Z,10.68
2023-03-29T22:03:38.589Z,9.07
2023-03-29T22:06:11.061Z,9.95
2023-03-29T22:08:40.671Z,9.95
2023-03-29T22:11:14.377Z,10.68
2023-03-29T22:14:00.272Z,9.80
2023-03-29T22:16:28.768Z,11.85
2023-03-29T22:18:55.683Z,10.77
2023-03-29T22:21:24.766Z,10.90
2023-03-29T22:23:54.054Z,10.27
2023-03-29T22:26:23.772Z,10.98
2023-03-29T22:28:51.813Z,10.85
2023-03-29T22:31:21.073Z,9.98
2023-03-29T22:33:48.879Z,9.85
2023-03-29T22:36:19.879Z,9.55
2023-03-29T22:38:48.214Z,9.30
2023-03-29T22:41:17.196Z,10.95
2023-03-29T22:43:44.199Z,10.32
2023-03-29T22:46:12.713Z,11.15
2023-03-29T22:48:39.589Z,10.48
2023-03-29T22:51:06.617Z,10.50
2023-03-29T22:53:33.841Z,10.98
2023-03-29T22:56:00.943Z,10.73
2023-03-29T22:58:29.519Z,10.05
2023-03-29T23:00:57.709Z,11.50
2023-03-29T23:03:24.742Z,10.45
2023-03-29T23:05:53.040Z,11.55
2023-03-29T23:08:20.035Z,10.88
2023-03-29T23:10:47.179Z,11.70
2023-03-29T23:13:19.942Z,11.70
2023-03-29T23:15:49.109Z,11.43
2023-03-29T23:18:21.439Z,9.95
2023-03-29T23:20:49.923Z,11.85
2023-03-29T23:23:18.374Z,11.52
2023-03-29T23:25:49.639Z,9.77
2023-03-29T23:28:21.642Z,9.35
2023-03-29T23:31:18.492Z,9.95
2023-03-29T23:34:04.172Z,9.73
2023-03-29T23:36:31.556Z,8.65
2023-03-29T23:38:59.617Z,8.68
2023-03-29T23:41:28.321Z,9.65
2023-03-29T23:43:57.874Z,7.50
2023-03-29T23:46:25.327Z,7.63
2023-03-29T23:48:52.149Z,7.10
2023-03-29T23:51:22.910Z,6.47
2023-03-29T23:53:50.360Z,5.63
2023-03-29T23:56:17.364Z,5.37
2023-03-29T23:58:44.605Z,5.70
